createdAt,value
2018-05-08T00:00:16.095Z,38.50
2018-05-08T00:00:53.471Z,38.60
2018-05-08T00:01:30.928Z,38.60
2018-05-08T00:02:08.521Z,38.40
2018-05-08T00:02:45.896Z,38.30
2018-05-08T00:03:23.478Z,38.30
2018-05-08T00:04:00.916Z,38.30
2018-05-08T00:04:39.158Z,38.40
2018-05-08T00:05:16.700Z,38.20
2018-05-08T00:05:54.062Z,38.20
2018-05-08T00:06:31.681Z,38.00
2018-05-08T00:07:10.090Z,38.20
2018-05-08T00:07:47.662Z,38.10
2018-05-08T00:08:25.292Z,38.20
2018-05-08T00:09:02.861Z,38.20
2018-05-08T00:09:40.221Z,38.20
2018-05-08T00:10:17.631Z,38.20
2018-05-08T00:10:55.166Z,38.10
2018-05-08T00:11:32.733Z,38.20
2018-05-08T00:12:10.094Z,38.20
2018-05-08T00:12:48.299Z,38.10
2018-05-08T00:13:25.868Z,38.10
2018-05-08T00:14:03.245Z,38.00
2018-05-08T00:14:40.754Z,38.00
2018-05-08T00:15:18.956Z,38.60
2018-05-08T00:15:56.521Z,38.00
2018-05-08T00:16:34.069Z,37.90
2018-05-08T00:17:12.178Z,38.10
2018-05-08T00:17:49.755Z,38.00
2018-05-08T00:18:27.406Z,37.90
2018-05-08T00:19:04.711Z,37.80
2018-05-08T00:19:42.243Z,37.90
2018-05-08T00:20:19.795Z,37.70
2018-05-08T00:20:57.159Z,37.80
2018-05-08T00:21:34.779Z,37.80
2018-05-08T00:22:13.163Z,37.70
2018-05-08T00:22:50.553Z,37.70
2018-05-08T00:23:28.735Z,38.10
2018-05-08T00:24:06.335Z,37.70
2018-05-08T00:24:43.653Z,37.60
2018-05-08T00:25:21.992Z,37.50
2018-05-08T00:25:59.601Z,37.50
2018-05-08T00:26:37.054Z,37.50
2018-05-08T00:27:14.572Z,37.30
2018-05-08T00:27:51.970Z,37.50
2018-05-08T00:28:30.109Z,37.50
2018-05-08T00:29:07.696Z,37.50
2018-05-08T00:29:45.275Z,37.30
2018-05-08T00:30:22.866Z,37.30
2018-05-08T00:31:00.432Z,37.40
2018-05-08T00:31:37.976Z,37.50
2018-05-08T00:32:15.596Z,37.40
2018-05-08T00:32:53.191Z,37.20
2018-05-08T00:33:31.458Z,37.30
2018-05-08T00:34:09.064Z,37.20
2018-05-08T00:34:46.650Z,37.50
2018-05-08T00:35:24.222Z,37.50
2018-05-08T00:36:01.681Z,37.50
2018-05-08T00:36:39.999Z,37.50
2018-05-08T00:37:17.302Z,37.50
2018-05-08T00:37:54.974Z,37.40
2018-05-08T00:38:32.546Z,37.20
2018-05-08T00:39:10.089Z,37.30
2018-05-08T00:39:47.571Z,37.40
2018-05-08T00:40:25.370Z,37.30
2018-05-08T00:41:02.972Z,37.90
2018-05-08T00:41:40.526Z,37.30
2018-05-08T00:42:18.045Z,37.20
2018-05-08T00:42:55.592Z,37.30
2018-05-08T00:43:33.773Z,37.30
2018-05-08T00:44:11.128Z,37.20
2018-05-08T00:44:49.256Z,37.20
2018-05-08T00:45:26.939Z,37.20
2018-05-08T00:46:04.522Z,37.00
2018-05-08T00:46:42.109Z,36.90
2018-05-08T00:47:19.683Z,37.00
2018-05-08T00:47:57.267Z,37.10
2018-05-08T00:48:34.810Z,37.10
2018-05-08T00:49:12.951Z,37.10
2018-05-08T00:49:50.433Z,37.10
2018-05-08T00:50:27.990Z,37.10
2018-05-08T00:51:05.307Z,36.90
2018-05-08T00:51:42.870Z,36.90
2018-05-08T00:52:21.257Z,37.10
2018-05-08T00:52:58.679Z,37.00
2018-05-08T00:53:36.261Z,37.10
2018-05-08T00:54:13.825Z,37.00
2018-05-08T00:54:51.172Z,37.20
2018-05-08T00:55:28.705Z,37.10
2018-05-08T00:56:06.096Z,37.10
2018-05-08T00:56:43.420Z,37.10
2018-05-08T00:57:20.999Z,37.20
2018-05-08T00:57:58.441Z,37.20
2018-05-08T00:58:35.757Z,36.90
2018-05-08T00:59:13.288Z,37.00
2018-05-08T00:59:50.899Z,37.00
2018-05-08T01:00:28.502Z,37.00
2018-05-08T01:01:06.766Z,36.90
2018-05-08T01:01:44.886Z,37.00
2018-05-08T01:02:22.492Z,36.90
2018-05-08T01:02:59.907Z,36.90
2018-05-08T01:03:37.515Z,36.90
2018-05-08T01:04:15.115Z,36.80
2018-05-08T01:04:52.760Z,36.80
2018-05-08T01:05:30.285Z,36.80
2018-05-08T01:06:07.855Z,36.70
2018-05-08T01:06:45.290Z,36.80
2018-05-08T01:07:22.653Z,36.80
2018-05-08T01:08:00.041Z,36.80
2018-05-08T01:08:37.367Z,36.80
2018-05-08T01:09:14.933Z,36.70
2018-05-08T01:09:52.841Z,36.90
2018-05-08T01:10:31.035Z,36.80
2018-05-08T01:11:08.640Z,36.70
2018-05-08T01:11:46.782Z,36.80
2018-05-08T01:12:24.359Z,36.70
2018-05-08T01:13:02.692Z,36.60
2018-05-08T01:13:40.260Z,36.70
2018-05-08T01:14:17.638Z,36.70
2018-05-08T01:14:55.154Z,36.80
2018-05-08T01:15:32.674Z,36.80
2018-05-08T01:16:10.416Z,36.60
2018-05-08T01:16:48.017Z,36.60
2018-05-08T01:17:25.520Z,36.50
2018-05-08T01:18:03.127Z,36.60
2018-05-08T01:18:41.329Z,36.60
2018-05-08T01:19:18.890Z,36.60
2018-05-08T01:19:56.489Z,36.60
2018-05-08T01:20:34.061Z,36.60
2018-05-08T01:21:11.612Z,36.70
2018-05-08T01:21:49.112Z,36.50
2018-05-08T01:22:26.480Z,36.50
2018-05-08T01:23:04.074Z,36.50
2018-05-08T01:23:41.646Z,36.50
2018-05-08T01:24:19.743Z,36.50
2018-05-08T01:24:57.308Z,36.50
2018-05-08T01:25:35.606Z,36.60
2018-05-08T01:26:13.014Z,36.50
2018-05-08T01:26:51.182Z,36.50
2018-05-08T01:27:28.771Z,36.50
2018-05-08T01:28:06.346Z,36.50
2018-05-08T01:28:43.660Z,36.40
2018-05-08T01:29:21.210Z,36.40
2018-05-08T01:29:58.808Z,36.60
2018-05-08T01:30:36.389Z,36.50
2018-05-08T01:31:14.019Z,36.50
2018-05-08T01:31:51.596Z,36.50
2018-05-08T01:32:29.122Z,36.50
2018-05-08T01:33:07.199Z,36.60
2018-05-08T01:33:44.583Z,36.60
2018-05-08T01:34:21.882Z,36.50
2018-05-08T01:34:59.496Z,36.50
2018-05-08T01:35:37.056Z,36.70
2018-05-08T01:36:14.601Z,36.60
2018-05-08T01:36:52.783Z,36.70
2018-05-08T01:37:30.895Z,36.70
2018-05-08T01:38:08.498Z,36.70
2018-05-08T01:38:45.932Z,36.70
2018-05-08T01:39:23.557Z,36.80
2018-05-08T01:40:01.773Z,36.90
2018-05-08T01:40:39.312Z,36.80
2018-05-08T01:41:16.698Z,36.80
2018-05-08T01:41:54.278Z,36.90
2018-05-08T01:42:31.696Z,36.90
2018-05-08T01:43:09.099Z,36.90
2018-05-08T01:43:46.439Z,37.00
2018-05-08T01:44:23.984Z,37.00
2018-05-08T01:45:01.509Z,36.90
2018-05-08T01:45:39.076Z,36.90
2018-05-08T01:46:16.739Z,36.80
2018-05-08T01:46:54.206Z,36.90
2018-05-08T01:47:31.842Z,36.90
2018-05-08T01:48:09.370Z,36.90
2018-05-08T01:48:46.718Z,37.00
2018-05-08T01:49:24.038Z,37.00
2018-05-08T01:50:01.565Z,37.10
2018-05-08T01:50:39.233Z,37.20
2018-05-08T01:51:16.761Z,37.20
2018-05-08T01:51:55.088Z,37.20
2018-05-08T01:52:32.655Z,37.20
2018-05-08T01:53:09.973Z,37.30
2018-05-08T01:53:47.534Z,37.40
2018-05-08T01:54:25.068Z,37.20
2018-05-08T01:55:03.478Z,37.80
2018-05-08T01:55:41.113Z,37.20
2018-05-08T01:56:18.647Z,37.20
2018-05-08T01:56:56.251Z,37.30
2018-05-08T01:57:33.833Z,37.40
2018-05-08T01:58:11.410Z,37.40
2018-05-08T01:58:48.966Z,37.40
2018-05-08T01:59:26.428Z,37.50
2018-05-08T02:00:03.790Z,37.40
2018-05-08T02:00:42.057Z,37.50
2018-05-08T02:01:19.626Z,37.40
2018-05-08T02:01:57.188Z,37.40
2018-05-08T02:02:34.811Z,37.30
2018-05-08T02:03:12.363Z,37.30
2018-05-08T02:03:49.892Z,37.30
2018-05-08T02:04:27.210Z,37.30
2018-05-08T02:05:04.749Z,37.30
2018-05-08T02:05:42.079Z,37.30
2018-05-08T02:06:19.652Z,37.30
2018-05-08T02:06:56.974Z,37.20
2018-05-08T02:07:35.126Z,37.10
2018-05-08T02:08:12.673Z,37.10
2018-05-08T02:08:50.281Z,37.10
2018-05-08T02:09:27.847Z,37.10
2018-05-08T02:10:05.422Z,37.00
2018-05-08T02:10:43.062Z,37.00
2018-05-08T02:11:21.234Z,36.80
2018-05-08T02:11:58.810Z,36.80
2018-05-08T02:12:37.080Z,36.90
2018-05-08T02:13:14.649Z,36.90
2018-05-08T02:13:52.940Z,36.90
2018-05-08T02:14:30.301Z,36.80
2018-05-08T02:15:07.784Z,36.90
2018-05-08T02:15:45.152Z,36.90
2018-05-08T02:16:22.485Z,36.80
2018-05-08T02:16:59.865Z,36.80
2018-05-08T02:17:37.446Z,36.80
2018-05-08T02:18:14.958Z,36.80
2018-05-08T02:18:52.343Z,36.80
2018-05-08T02:19:30.587Z,36.70
2018-05-08T02:20:08.176Z,36.70
2018-05-08T02:20:45.774Z,36.70
2018-05-08T02:21:23.300Z,36.70
2018-05-08T02:22:00.668Z,36.60
2018-05-08T02:22:38.802Z,36.70
2018-05-08T02:23:16.289Z,36.70
2018-05-08T02:23:53.849Z,36.70
2018-05-08T02:24:32.135Z,36.80
2018-05-08T02:25:10.240Z,36.80
2018-05-08T02:25:47.767Z,36.70
2018-05-08T02:26:25.327Z,36.80
2018-05-08T02:27:02.775Z,36.80
2018-05-08T02:27:40.968Z,36.90
2018-05-08T02:28:19.083Z,36.90
2018-05-08T02:28:56.654Z,36.80
2018-05-08T02:29:34.228Z,36.90
2018-05-08T02:30:11.811Z,37.00
2018-05-08T02:30:49.424Z,37.00
2018-05-08T02:31:26.942Z,37.00
2018-05-08T02:32:05.075Z,37.00
2018-05-08T02:32:43.263Z,36.90
2018-05-08T02:33:20.872Z,36.80
2018-05-08T02:33:58.439Z,36.90
2018-05-08T02:34:36.067Z,36.90
2018-05-08T02:35:13.559Z,36.90
2018-05-08T02:35:50.858Z,36.90
2018-05-08T02:36:29.174Z,37.00
2018-05-08T02:37:06.708Z,37.00
2018-05-08T02:37:44.247Z,37.00
2018-05-08T02:38:21.677Z,37.00
2018-05-08T02:38:59.822Z,37.20
2018-05-08T02:39:37.195Z,37.20
2018-05-08T02:40:14.667Z,37.10
2018-05-08T02:40:52.255Z,37.20
2018-05-08T02:41:29.637Z,37.00
2018-05-08T02:42:07.911Z,37.20
2018-05-08T02:42:45.285Z,37.20
2018-05-08T02:43:23.092Z,37.20
2018-05-08T02:44:00.655Z,37.20
2018-05-08T02:44:38.935Z,37.30
2018-05-08T02:45:16.446Z,37.30
2018-05-08T02:45:53.964Z,37.30
2018-05-08T02:46:31.612Z,37.20
2018-05-08T02:47:08.996Z,37.30
2018-05-08T02:47:47.170Z,37.70
2018-05-08T02:48:24.562Z,37.10
2018-05-08T02:49:02.642Z,37.20
2018-05-08T02:49:40.841Z,37.20
2018-05-08T02:50:18.340Z,37.20
2018-05-08T02:50:55.943Z,37.30
2018-05-08T02:51:33.475Z,37.30
2018-05-08T02:52:10.986Z,37.20
2018-05-08T02:52:49.254Z,38.00
2018-05-08T02:53:27.566Z,37.40
2018-05-08T02:54:04.974Z,37.40
2018-05-08T02:54:42.369Z,37.50
2018-05-08T02:55:19.664Z,37.40
2018-05-08T02:55:57.226Z,37.50
2018-05-08T02:56:34.786Z,37.50
2018-05-08T02:57:13.056Z,37.40
2018-05-08T02:57:50.603Z,37.30
2018-05-08T02:58:28.739Z,37.40
2018-05-08T02:59:06.163Z,37.40
2018-05-08T02:59:44.294Z,37.40
2018-05-08T03:00:21.632Z,37.40
2018-05-08T03:00:59.156Z,37.40
2018-05-08T03:01:36.574Z,37.30
2018-05-08T03:02:13.967Z,37.20
2018-05-08T03:02:52.336Z,38.00
2018-05-08T03:03:29.927Z,37.30
2018-05-08T03:04:08.269Z,37.40
2018-05-08T03:04:46.347Z,37.40
2018-05-08T03:05:23.847Z,37.40
2018-05-08T03:06:01.469Z,37.40
2018-05-08T03:06:39.027Z,37.40
2018-05-08T03:07:16.578Z,37.50
2018-05-08T03:07:54.193Z,37.40
2018-05-08T03:08:31.612Z,37.50
2018-05-08T03:09:08.943Z,37.60
2018-05-08T03:09:46.376Z,37.50
2018-05-08T03:10:23.947Z,37.50
2018-05-08T03:11:01.345Z,37.50
2018-05-08T03:11:38.900Z,37.60
2018-05-08T03:12:16.511Z,37.50
2018-05-08T03:12:54.126Z,37.60
2018-05-08T03:13:31.726Z,37.60
2018-05-08T03:14:09.131Z,37.60
2018-05-08T03:14:47.495Z,37.50
2018-05-08T03:15:25.035Z,37.50
2018-05-08T03:16:02.501Z,37.40
2018-05-08T03:16:40.615Z,37.40
2018-05-08T03:17:18.197Z,37.30
2018-05-08T03:17:55.795Z,37.30
2018-05-08T03:18:33.334Z,37.40
2018-05-08T03:19:10.720Z,37.40
2018-05-08T03:19:48.243Z,37.40
2018-05-08T03:20:25.779Z,37.30
2018-05-08T03:21:03.411Z,37.40
2018-05-08T03:21:40.983Z,37.40
2018-05-08T03:22:18.633Z,37.30
2018-05-08T03:22:56.023Z,37.40
2018-05-08T03:23:33.491Z,37.40
2018-05-08T03:24:11.619Z,37.30
2018-05-08T03:24:49.008Z,37.30
2018-05-08T03:25:26.343Z,37.30
2018-05-08T03:26:03.963Z,37.30
2018-05-08T03:26:41.297Z,37.30
2018-05-08T03:27:18.639Z,37.20
2018-05-08T03:27:56.154Z,37.10
2018-05-08T03:28:33.654Z,37.20
2018-05-08T03:29:11.276Z,37.10
2018-05-08T03:29:49.404Z,37.10
2018-05-08T03:30:26.979Z,37.00
2018-05-08T03:31:04.584Z,36.90
2018-05-08T03:31:42.070Z,36.90
2018-05-08T03:32:20.304Z,37.00
2018-05-08T03:32:57.831Z,36.90
2018-05-08T03:33:35.363Z,36.90
2018-05-08T03:34:13.715Z,36.90
2018-05-08T03:34:51.932Z,36.90
2018-05-08T03:35:29.498Z,36.90
2018-05-08T03:36:06.931Z,36.90
2018-05-08T03:36:44.466Z,36.90
2018-05-08T03:37:21.992Z,36.90
2018-05-08T03:37:59.355Z,37.00
2018-05-08T03:38:36.724Z,37.00
2018-05-08T03:39:14.052Z,36.90
2018-05-08T03:39:51.623Z,36.90
2018-05-08T03:40:29.193Z,36.90
2018-05-08T03:41:06.665Z,37.00
2018-05-08T03:41:44.277Z,36.90
2018-05-08T03:42:21.820Z,36.90
2018-05-08T03:42:59.951Z,37.00
2018-05-08T03:43:38.136Z,36.80
2018-05-08T03:44:15.770Z,36.80
2018-05-08T03:44:53.308Z,36.90
2018-05-08T03:45:30.726Z,36.90
2018-05-08T03:46:08.358Z,36.90
2018-05-08T03:46:45.817Z,36.90
2018-05-08T03:47:24.103Z,36.90
2018-05-08T03:48:02.203Z,37.00
2018-05-08T03:48:40.320Z,36.90
2018-05-08T03:49:17.877Z,36.90
2018-05-08T03:49:55.275Z,36.90
2018-05-08T03:50:32.711Z,36.80
2018-05-08T03:51:10.125Z,36.80
2018-05-08T03:51:47.707Z,36.80
2018-05-08T03:52:25.273Z,36.80
2018-05-08T03:53:02.899Z,36.70
2018-05-08T03:53:41.080Z,36.80
2018-05-08T03:54:18.550Z,36.70
2018-05-08T03:54:56.176Z,36.70
2018-05-08T03:55:34.515Z,36.70
2018-05-08T03:56:11.891Z,36.60
2018-05-08T03:56:49.251Z,36.80
2018-05-08T03:57:26.677Z,36.90
2018-05-08T03:58:04.015Z,36.90
2018-05-08T03:58:41.594Z,36.90
2018-05-08T03:59:19.195Z,36.90
2018-05-08T03:59:56.551Z,36.90
2018-05-08T04:00:33.903Z,37.10
2018-05-08T04:01:11.593Z,37.00
2018-05-08T04:01:49.100Z,37.00
2018-05-08T04:02:26.697Z,37.50
2018-05-08T04:03:04.284Z,38.00
2018-05-08T04:03:41.623Z,38.00
2018-05-08T04:04:19.182Z,38.10
2018-05-08T04:04:56.538Z,38.60
2018-05-08T04:05:34.240Z,38.90
2018-05-08T04:06:11.652Z,38.90
2018-05-08T04:06:49.741Z,39.00
2018-05-08T04:07:27.254Z,38.90
2018-05-08T04:08:04.665Z,38.90
2018-05-08T04:08:42.333Z,38.80
2018-05-08T04:09:19.879Z,38.80
2018-05-08T04:09:57.974Z,38.70
2018-05-08T04:10:35.321Z,38.80
2018-05-08T04:11:13.437Z,38.70
2018-05-08T04:11:51.551Z,38.50
2018-05-08T04:12:29.146Z,38.50
2018-05-08T04:13:06.565Z,38.50
2018-05-08T04:13:44.117Z,38.70
2018-05-08T04:14:21.481Z,38.70
2018-05-08T04:14:59.038Z,38.50
2018-05-08T04:15:36.407Z,38.30
2018-05-08T04:16:13.970Z,38.30
2018-05-08T04:16:51.283Z,38.20
2018-05-08T04:17:28.825Z,38.20
2018-05-08T04:18:06.943Z,38.20
2018-05-08T04:18:45.226Z,38.00
2018-05-08T04:19:23.340Z,38.00
2018-05-08T04:20:00.706Z,38.00
2018-05-08T04:20:38.210Z,38.10
2018-05-08T04:21:15.754Z,37.90
2018-05-08T04:21:53.234Z,37.90
2018-05-08T04:22:30.623Z,37.90
2018-05-08T04:23:08.100Z,37.90
2018-05-08T04:23:45.651Z,37.90
2018-05-08T04:24:23.234Z,38.00
2018-05-08T04:25:00.854Z,38.00
2018-05-08T04:25:38.391Z,37.90
2018-05-08T04:26:15.769Z,37.90
2018-05-08T04:26:53.329Z,37.80
2018-05-08T04:27:30.915Z,37.80
2018-05-08T04:28:08.408Z,37.80
2018-05-08T04:28:45.934Z,38.10
2018-05-08T04:29:23.484Z,39.70
2018-05-08T04:30:01.067Z,41.30
2018-05-08T04:30:39.187Z,38.70
2018-05-08T04:31:16.708Z,38.60
2018-05-08T04:31:54.406Z,37.60
2018-05-08T04:32:32.674Z,40.90
2018-05-08T04:33:10.968Z,38.60
2018-05-08T04:33:48.329Z,38.50
2018-05-08T04:34:26.691Z,38.40
2018-05-08T04:35:04.260Z,38.40
2018-05-08T04:35:41.758Z,39.10
2018-05-08T04:36:19.103Z,38.60
2018-05-08T04:36:56.509Z,39.40
2018-05-08T04:37:34.707Z,38.90
2018-05-08T04:38:12.300Z,38.80
2018-05-08T04:38:49.903Z,39.60
2018-05-08T04:39:27.262Z,39.60
2018-05-08T04:40:04.594Z,43.10
2018-05-08T04:40:42.727Z,44.50
2018-05-08T04:41:20.323Z,44.40
2018-05-08T04:41:58.502Z,44.00
2018-05-08T04:42:35.836Z,44.00
2018-05-08T04:43:13.167Z,43.90
2018-05-08T04:43:50.551Z,43.90
2018-05-08T04:44:27.911Z,43.80
2018-05-08T04:45:06.195Z,44.10
2018-05-08T04:45:44.368Z,43.80
2018-05-08T04:46:21.904Z,43.80
2018-05-08T04:46:59.471Z,43.20
2018-05-08T04:47:36.966Z,44.10
2018-05-08T04:48:14.484Z,43.50
2018-05-08T04:48:52.095Z,43.60
2018-05-08T04:49:29.721Z,43.30
2018-05-08T04:50:07.270Z,43.30
2018-05-08T04:50:45.621Z,43.20
2018-05-08T04:51:23.759Z,43.00
2018-05-08T04:52:02.153Z,43.20
2018-05-08T04:52:39.726Z,43.10
2018-05-08T04:53:17.106Z,43.00
2018-05-08T04:53:54.427Z,42.80
2018-05-08T04:54:32.003Z,42.60
2018-05-08T04:55:10.380Z,43.00
2018-05-08T04:55:47.827Z,42.60
2018-05-08T04:56:25.114Z,42.50
2018-05-08T04:57:02.468Z,42.30
2018-05-08T04:57:39.863Z,42.30
2018-05-08T04:58:17.179Z,42.40
2018-05-08T04:58:55.362Z,42.00
2018-05-08T04:59:32.937Z,42.00
2018-05-08T05:00:10.434Z,42.20
2018-05-08T05:00:48.136Z,42.10
2018-05-08T05:01:25.677Z,41.90
2018-05-08T05:02:03.035Z,41.90
2018-05-08T05:02:41.182Z,41.80
2018-05-08T05:03:18.624Z,41.80
2018-05-08T05:03:56.083Z,41.60
2018-05-08T05:04:33.599Z,41.10
2018-05-08T05:05:11.367Z,41.00
2018-05-08T05:05:48.781Z,41.30
2018-05-08T05:06:26.320Z,41.80
2018-05-08T05:07:03.903Z,41.40
2018-05-08T05:07:41.379Z,40.70
2018-05-08T05:08:18.743Z,40.40
2018-05-08T05:08:56.262Z,40.20
2018-05-08T05:09:33.825Z,40.20
2018-05-08T05:10:11.219Z,40.20
2018-05-08T05:10:48.841Z,40.50
2018-05-08T05:11:26.232Z,40.30
2018-05-08T05:12:03.851Z,40.40
2018-05-08T05:12:41.447Z,40.70
2018-05-08T05:13:19.054Z,40.00
2018-05-08T05:13:57.315Z,39.80
2018-05-08T05:14:34.665Z,39.80
2018-05-08T05:15:12.179Z,39.90
2018-05-08T05:15:49.732Z,39.80
2018-05-08T05:16:27.322Z,39.90
2018-05-08T05:17:04.891Z,39.90
2018-05-08T05:17:42.511Z,40.00
2018-05-08T05:18:20.068Z,39.80
2018-05-08T05:18:57.642Z,39.60
2018-05-08T05:19:36.042Z,39.80
2018-05-08T05:20:14.330Z,39.80
2018-05-08T05:20:52.446Z,39.70
2018-05-08T05:21:29.783Z,39.70
2018-05-08T05:22:08.097Z,39.60
2018-05-08T05:22:45.458Z,39.50
2018-05-08T05:23:22.848Z,39.50
2018-05-08T05:24:00.444Z,39.40
2018-05-08T05:24:38.548Z,39.30
2018-05-08T05:25:16.138Z,39.20
2018-05-08T05:25:53.697Z,39.40
2018-05-08T05:26:31.266Z,39.40
2018-05-08T05:27:08.793Z,39.40
2018-05-08T05:27:46.115Z,39.50
2018-05-08T05:28:23.634Z,39.30
2018-05-08T05:29:01.187Z,39.40
2018-05-08T05:29:38.828Z,39.30
2018-05-08T05:30:16.496Z,39.30
2018-05-08T05:30:54.078Z,39.30
2018-05-08T05:31:31.651Z,39.20
2018-05-08T05:32:09.175Z,39.00
2018-05-08T05:32:46.562Z,39.20
2018-05-08T05:33:23.944Z,39.20
2018-05-08T05:34:01.320Z,39.10
2018-05-08T05:34:39.424Z,39.00
2018-05-08T05:35:17.029Z,39.00
2018-05-08T05:35:54.563Z,39.20
2018-05-08T05:36:32.156Z,39.20
2018-05-08T05:37:09.764Z,39.10
2018-05-08T05:37:47.653Z,39.30
2018-05-08T05:38:25.228Z,39.30
2018-05-08T05:39:02.823Z,39.10
2018-05-08T05:39:40.410Z,38.90
2018-05-08T05:40:17.922Z,38.80
2018-05-08T05:40:55.420Z,39.00
2018-05-08T05:41:32.817Z,39.00
2018-05-08T05:42:10.383Z,38.90
2018-05-08T05:42:47.764Z,38.90
2018-05-08T05:43:25.120Z,38.80
2018-05-08T05:44:02.638Z,38.80
2018-05-08T05:44:40.331Z,38.80
2018-05-08T05:45:17.879Z,38.90
2018-05-08T05:45:55.478Z,38.80
2018-05-08T05:46:32.834Z,38.90
2018-05-08T05:47:10.332Z,38.60
2018-05-08T05:47:47.795Z,38.70
2018-05-08T05:48:25.143Z,38.70
2018-05-08T05:49:02.747Z,39.10
2018-05-08T05:49:41.054Z,38.70
2018-05-08T05:50:19.164Z,38.70
2018-05-08T05:50:56.520Z,38.70
2018-05-08T05:51:34.849Z,38.80
2018-05-08T05:52:12.225Z,38.70
2018-05-08T05:52:49.810Z,38.60
2018-05-08T05:53:27.346Z,38.40
2018-05-08T05:54:04.978Z,38.20
2018-05-08T05:54:42.547Z,38.20
2018-05-08T05:55:20.096Z,38.30
2018-05-08T05:55:57.593Z,38.30
2018-05-08T05:56:35.686Z,38.40
2018-05-08T05:57:13.042Z,38.30
2018-05-08T05:57:51.358Z,38.50
2018-05-08T05:58:28.721Z,38.50
2018-05-08T05:59:06.235Z,38.40
2018-05-08T05:59:43.838Z,38.50
2018-05-08T06:00:21.384Z,38.60
2018-05-08T06:00:59.026Z,38.60
2018-05-08T06:01:36.405Z,38.40
2018-05-08T06:02:13.945Z,38.60
2018-05-08T06:02:52.307Z,38.90
2018-05-08T06:03:29.874Z,38.90
2018-05-08T06:04:07.409Z,38.70
2018-05-08T06:04:44.961Z,38.70
2018-05-08T06:05:22.453Z,38.70
2018-05-08T06:05:59.784Z,38.70
2018-05-08T06:06:37.136Z,38.70
2018-05-08T06:07:14.701Z,38.60
2018-05-08T06:07:52.149Z,38.70
2018-05-08T06:08:29.655Z,38.70
2018-05-08T06:09:07.252Z,38.90
2018-05-08T06:09:45.555Z,38.60
2018-05-08T06:10:23.127Z,38.60
2018-05-08T06:11:00.491Z,38.50
2018-05-08T06:11:38.761Z,38.60
2018-05-08T06:12:16.355Z,38.50
2018-05-08T06:12:54.014Z,38.60
2018-05-08T06:13:31.615Z,38.50
2018-05-08T06:14:09.702Z,38.50
2018-05-08T06:14:47.179Z,38.40
2018-05-08T06:15:24.531Z,38.70
2018-05-08T06:16:02.050Z,38.80
2018-05-08T06:16:39.646Z,38.60
2018-05-08T06:17:17.265Z,38.50
2018-05-08T06:17:54.820Z,38.40
2018-05-08T06:18:32.438Z,38.20
2018-05-08T06:19:10.572Z,38.60
2018-05-08T06:19:48.076Z,38.50
2018-05-08T06:20:26.501Z,38.60
2018-05-08T06:21:04.528Z,38.50
2018-05-08T06:21:41.888Z,38.50
2018-05-08T06:22:20.003Z,38.50
2018-05-08T06:22:57.606Z,38.50
2018-05-08T06:23:35.150Z,38.60
2018-05-08T06:24:12.676Z,38.60
2018-05-08T06:24:50.936Z,38.70
2018-05-08T06:25:28.530Z,38.70
2018-05-08T06:26:05.874Z,38.70
2018-05-08T06:26:43.176Z,38.70
2018-05-08T06:27:20.766Z,39.10
2018-05-08T06:27:59.061Z,38.70
2018-05-08T06:28:36.442Z,38.70
2018-05-08T06:29:14.013Z,38.60
2018-05-08T06:29:52.298Z,38.60
2018-05-08T06:30:29.692Z,38.60
2018-05-08T06:31:07.023Z,38.60
2018-05-08T06:31:44.596Z,38.80
2018-05-08T06:32:22.826Z,39.20
2018-05-08T06:33:01.157Z,39.00
2018-05-08T06:33:38.498Z,38.40
2018-05-08T06:34:16.096Z,38.50
2018-05-08T06:34:53.687Z,38.40
2018-05-08T06:35:31.279Z,38.20
2018-05-08T06:36:09.343Z,38.40
2018-05-08T06:36:47.455Z,38.20
2018-05-08T06:37:25.016Z,38.10
2018-05-08T06:38:03.113Z,38.20
2018-05-08T06:38:40.471Z,38.20
2018-05-08T06:39:17.991Z,38.00
2018-05-08T06:39:56.323Z,38.20
2018-05-08T06:40:33.632Z,38.20
2018-05-08T06:41:10.994Z,38.20
2018-05-08T06:41:48.674Z,38.20
2018-05-08T06:42:26.195Z,38.10
2018-05-08T06:43:03.781Z,37.90
2018-05-08T06:43:41.326Z,37.80
2018-05-08T06:44:18.889Z,37.90
2018-05-08T06:44:56.398Z,37.80
2018-05-08T06:45:34.519Z,38.00
2018-05-08T06:46:12.099Z,37.90
2018-05-08T06:46:49.640Z,38.10
2018-05-08T06:47:27.970Z,37.80
2018-05-08T06:48:06.155Z,37.80
2018-05-08T06:48:43.672Z,37.80
2018-05-08T06:49:21.205Z,37.90
2018-05-08T06:49:58.767Z,37.90
2018-05-08T06:50:36.128Z,37.90
2018-05-08T06:51:13.674Z,37.80
2018-05-08T06:51:51.269Z,37.70
2018-05-08T06:52:28.791Z,37.60
2018-05-08T06:53:06.147Z,37.70
2018-05-08T06:53:43.687Z,37.60
2018-05-08T06:54:21.293Z,37.80
2018-05-08T06:54:58.890Z,37.50
2018-05-08T06:55:36.189Z,37.70
2018-05-08T06:56:13.515Z,37.70
2018-05-08T06:56:51.098Z,37.40
2018-05-08T06:57:28.438Z,37.70
2018-05-08T06:58:06.531Z,37.40
2018-05-08T06:58:43.893Z,37.30
2018-05-08T06:59:21.267Z,37.40
2018-05-08T06:59:58.575Z,37.40
2018-05-08T07:00:36.186Z,37.60
2018-05-08T07:01:13.762Z,37.50
2018-05-08T07:01:51.317Z,37.60
2018-05-08T07:02:28.902Z,37.40
2018-05-08T07:03:07.203Z,37.40
2018-05-08T07:03:45.511Z,37.40
2018-05-08T07:04:23.094Z,37.40
2018-05-08T07:05:00.637Z,37.40
2018-05-08T07:05:38.174Z,37.40
2018-05-08T07:06:15.739Z,37.40
2018-05-08T07:06:53.169Z,38.10
2018-05-08T07:07:30.653Z,37.40
2018-05-08T07:08:08.040Z,37.50
2018-05-08T07:08:45.544Z,37.60
2018-05-08T07:09:23.085Z,37.60
2018-05-08T07:10:00.449Z,37.60
2018-05-08T07:10:37.922Z,37.60
2018-05-08T07:11:15.295Z,37.50
2018-05-08T07:11:52.799Z,37.20
2018-05-08T07:12:30.903Z,37.30
2018-05-08T07:13:08.446Z,37.20
2018-05-08T07:13:46.802Z,37.20
2018-05-08T07:14:24.265Z,37.20
2018-05-08T07:15:01.765Z,37.10
2018-05-08T07:15:39.362Z,37.20
2018-05-08T07:16:17.149Z,37.40
2018-05-08T07:16:55.106Z,37.30
2018-05-08T07:17:32.571Z,37.30
2018-05-08T07:18:10.076Z,37.20
2018-05-08T07:18:48.507Z,37.70
2018-05-08T07:19:25.995Z,37.00
2018-05-08T07:20:03.561Z,37.20
2018-05-08T07:20:41.104Z,37.20
2018-05-08T07:21:19.205Z,37.10
2018-05-08T07:21:56.688Z,37.10
2018-05-08T07:22:34.317Z,37.10
2018-05-08T07:23:11.859Z,37.20
2018-05-08T07:23:49.448Z,37.30
2018-05-08T07:24:27.008Z,37.20
2018-05-08T07:25:05.402Z,37.20
2018-05-08T07:25:42.778Z,37.20
2018-05-08T07:26:20.417Z,37.20
2018-05-08T07:26:57.948Z,37.10
2018-05-08T07:27:35.567Z,37.00
2018-05-08T07:28:12.988Z,37.10
2018-05-08T07:28:50.347Z,37.00
2018-05-08T07:29:28.475Z,36.60
2018-05-08T07:30:05.828Z,36.60
2018-05-08T07:30:43.122Z,36.70
2018-05-08T07:31:21.222Z,36.70
2018-05-08T07:31:58.828Z,37.20
2018-05-08T07:32:37.115Z,36.60
2018-05-08T07:33:14.491Z,36.60
2018-05-08T07:33:52.076Z,36.90
2018-05-08T07:34:30.264Z,36.90
2018-05-08T07:35:07.689Z,36.90
2018-05-08T07:35:45.331Z,37.00
2018-05-08T07:36:22.921Z,36.90
2018-05-08T07:37:01.178Z,37.00
2018-05-08T07:37:39.481Z,36.80
2018-05-08T07:38:16.913Z,36.70
2018-05-08T07:38:54.224Z,36.80
2018-05-08T07:39:31.823Z,37.00
2018-05-08T07:40:09.397Z,36.90
2018-05-08T07:40:46.996Z,37.00
2018-05-08T07:41:24.588Z,36.90
2018-05-08T07:42:02.775Z,36.80
2018-05-08T07:42:40.315Z,36.80
2018-05-08T07:43:18.423Z,36.60
2018-05-08T07:43:56.557Z,36.70
2018-05-08T07:44:34.130Z,36.60
2018-05-08T07:45:12.402Z,36.80
2018-05-08T07:45:49.995Z,36.70
2018-05-08T07:46:27.574Z,36.60
2018-05-08T07:47:05.070Z,36.40
2018-05-08T07:47:42.603Z,36.40
2018-05-08T07:48:19.996Z,36.50
2018-05-08T07:48:57.634Z,36.40
2018-05-08T07:49:35.777Z,36.30
2018-05-08T07:50:13.391Z,36.30
2018-05-08T07:50:50.944Z,36.30
2018-05-08T07:51:29.224Z,36.60
2018-05-08T07:52:07.524Z,37.10
2018-05-08T07:52:45.095Z,36.50
2018-05-08T07:53:22.620Z,36.50
2018-05-08T07:54:00.101Z,36.40
2018-05-08T07:54:37.528Z,36.30
2018-05-08T07:55:15.110Z,36.40
2018-05-08T07:55:52.669Z,36.30
2018-05-08T07:56:30.167Z,36.00
2018-05-08T07:57:08.497Z,36.20
2018-05-08T07:57:47.518Z,36.10
2018-05-08T07:58:25.026Z,36.10
2018-05-08T07:59:03.307Z,36.10
2018-05-08T07:59:40.792Z,36.00
2018-05-08T08:00:18.347Z,36.30
2018-05-08T08:00:55.669Z,36.20
2018-05-08T08:01:33.204Z,36.40
2018-05-08T08:02:11.487Z,36.20
2018-05-08T08:02:49.036Z,36.20
2018-05-08T08:03:26.484Z,35.80
2018-05-08T08:04:03.759Z,36.00
2018-05-08T08:04:41.182Z,36.10